createdAt,value
2019-01-27T00:00:53.308Z,22.34
2019-01-27T00:03:19.960Z,22.34
2019-01-27T00:05:46.612Z,22.30
2019-01-27T00:08:13.776Z,22.18
2019-01-27T00:10:39.932Z,22.17
2019-01-27T00:13:06.586Z,22.25
2019-01-27T00:15:33.284Z,22.26
2019-01-27T00:17:59.925Z,22.29
2019-01-27T00:20:26.661Z,22.26
2019-01-27T00:22:53.305Z,22.20
2019-01-27T00:25:19.959Z,22.29
2019-01-27T00:27:46.605Z,22.30
2019-01-27T00:30:13.257Z,22.32
2019-01-27T00:32:39.903Z,22.30
2019-01-27T00:35:06.592Z,22.30
2019-01-27T00:37:33.229Z,22.34
2019-01-27T00:39:59.866Z,22.36
2019-01-27T00:42:26.537Z,22.35
2019-01-27T00:44:53.183Z,22.36
2019-01-27T00:47:19.878Z,22.34
2019-01-27T00:49:46.588Z,22.38
2019-01-27T00:52:13.323Z,22.36
2019-01-27T00:54:40.009Z,22.39
2019-01-27T00:57:06.672Z,22.37
2019-01-27T00:59:33.313Z,22.36
2019-01-27T01:01:59.963Z,22.31
2019-01-27T01:04:26.593Z,22.25
2019-01-27T01:06:53.285Z,22.23
2019-01-27T01:09:19.956Z,22.22
2019-01-27T01:11:46.605Z,22.27
2019-01-27T01:14:13.256Z,22.25
2019-01-27T01:16:40.008Z,22.27
2019-01-27T01:19:06.647Z,22.26
2019-01-27T01:21:33.340Z,22.31
2019-01-27T01:23:59.975Z,22.37
2019-01-27T01:26:26.619Z,22.34
2019-01-27T01:28:53.282Z,22.37
2019-01-27T01:31:19.967Z,22.33
2019-01-27T01:33:46.610Z,22.35
2019-01-27T01:36:13.297Z,22.37
2019-01-27T01:38:39.950Z,22.38
2019-01-27T01:41:06.620Z,22.38
2019-01-27T01:43:33.260Z,22.41
2019-01-27T01:45:59.898Z,22.37
2019-01-27T01:48:26.587Z,22.41
2019-01-27T01:50:53.238Z,22.40
2019-01-27T01:53:19.883Z,22.39
2019-01-27T01:55:46.557Z,22.39
2019-01-27T01:58:13.233Z,22.40
2019-01-27T02:00:39.878Z,22.41
2019-01-27T02:03:06.534Z,22.41
2019-01-27T02:05:33.173Z,22.43
2019-01-27T02:07:59.807Z,22.45
2019-01-27T02:10:26.474Z,22.46
2019-01-27T02:12:53.149Z,22.44
2019-01-27T02:15:19.838Z,22.42
2019-01-27T02:17:46.477Z,22.43
2019-01-27T02:20:13.160Z,22.42
2019-01-27T02:22:39.846Z,22.43
2019-01-27T02:25:06.495Z,22.44
2019-01-27T02:27:33.180Z,22.42
2019-01-27T02:29:59.856Z,22.42
2019-01-27T02:32:26.519Z,22.40
2019-01-27T02:34:53.161Z,22.43
2019-01-27T02:37:19.849Z,22.42
2019-01-27T02:39:46.577Z,22.40
2019-01-27T02:42:13.176Z,22.43
2019-01-27T02:44:39.814Z,22.40
2019-01-27T02:47:06.550Z,22.31
2019-01-27T02:49:33.192Z,22.08
2019-01-27T02:51:59.865Z,22.27
2019-01-27T02:54:26.506Z,22.29
2019-01-27T02:56:53.140Z,22.29
2019-01-27T02:59:19.967Z,22.29
2019-01-27T03:01:46.560Z,22.32
2019-01-27T03:04:13.241Z,22.32
2019-01-27T03:06:39.875Z,22.33
2019-01-27T03:09:06.530Z,22.34
2019-01-27T03:11:33.172Z,22.35
2019-01-27T03:13:59.850Z,22.34
2019-01-27T03:16:26.586Z,22.34
2019-01-27T03:18:53.220Z,22.34
2019-01-27T03:21:19.882Z,22.34
2019-01-27T03:23:46.532Z,22.33
2019-01-27T03:26:13.200Z,22.33
2019-01-27T03:28:39.840Z,22.37
2019-01-27T03:31:06.494Z,22.37
2019-01-27T03:33:33.132Z,22.34
2019-01-27T03:35:59.817Z,22.24
2019-01-27T03:38:26.552Z,22.17
2019-01-27T03:40:53.244Z,22.21
2019-01-27T03:43:19.881Z,22.19
2019-01-27T03:45:46.681Z,22.22
2019-01-27T03:48:13.341Z,22.23
2019-01-27T03:50:39.993Z,22.25
2019-01-27T03:53:06.668Z,22.26
2019-01-27T03:55:33.308Z,22.24
2019-01-27T03:57:59.961Z,22.25
2019-01-27T04:00:26.597Z,22.28
2019-01-27T04:02:53.339Z,22.29
2019-01-27T04:05:19.990Z,22.34
2019-01-27T04:07:46.645Z,22.31
2019-01-27T04:10:13.281Z,22.33
2019-01-27T04:12:39.918Z,22.27
2019-01-27T04:15:06.564Z,22.31
2019-01-27T04:17:33.223Z,22.26
2019-01-27T04:19:59.872Z,22.27
2019-01-27T04:22:26.514Z,22.28
2019-01-27T04:24:53.162Z,22.18
2019-01-27T04:27:19.800Z,22.07
2019-01-27T04:29:46.459Z,21.92
2019-01-27T04:32:13.110Z,21.86
2019-01-27T04:34:39.744Z,21.82
2019-01-27T04:37:06.384Z,21.86
2019-01-27T04:39:33.038Z,21.91
2019-01-27T04:41:59.682Z,21.98
2019-01-27T04:44:26.320Z,22.00
2019-01-27T04:46:52.968Z,22.00
2019-01-27T04:49:19.614Z,22.06
2019-01-27T04:51:46.242Z,22.08
2019-01-27T04:54:12.910Z,22.07
2019-01-27T04:56:39.558Z,22.07
2019-01-27T04:59:06.221Z,22.10
2019-01-27T05:01:32.857Z,22.10
2019-01-27T05:03:59.540Z,22.07
2019-01-27T05:06:26.202Z,22.06
2019-01-27T05:08:52.840Z,22.12
2019-01-27T05:11:19.475Z,22.05
2019-01-27T05:13:46.142Z,22.08
2019-01-27T05:16:12.855Z,22.13
2019-01-27T05:18:39.496Z,22.12
2019-01-27T05:21:06.154Z,22.11
2019-01-27T05:23:32.791Z,22.14
2019-01-27T05:25:59.440Z,22.13
2019-01-27T05:28:26.082Z,22.14
2019-01-27T05:30:52.725Z,22.11
2019-01-27T05:33:19.375Z,22.13
2019-01-27T05:35:46.013Z,22.14
2019-01-27T05:38:12.662Z,22.15
2019-01-27T05:40:39.306Z,22.15
2019-01-27T05:43:05.962Z,22.05
2019-01-27T05:45:32.609Z,21.98
2019-01-27T05:47:59.254Z,21.95
2019-01-27T05:50:25.904Z,21.99
2019-01-27T05:52:52.553Z,22.01
2019-01-27T05:55:19.207Z,22.03
2019-01-27T05:57:45.854Z,22.04
2019-01-27T06:00:12.498Z,22.06
2019-01-27T06:02:39.145Z,22.03
2019-01-27T06:05:05.810Z,22.06
2019-01-27T06:07:32.450Z,22.06
2019-01-27T06:09:59.096Z,22.08
2019-01-27T06:12:25.745Z,22.08
2019-01-27T06:14:52.397Z,22.09
2019-01-27T06:17:19.036Z,22.10
2019-01-27T06:19:45.703Z,22.12
2019-01-27T06:22:12.355Z,22.12
2019-01-27T06:24:38.991Z,22.12
2019-01-27T06:27:05.629Z,22.13
2019-01-27T06:29:32.282Z,22.11
2019-01-27T06:31:58.921Z,22.14
2019-01-27T06:34:25.564Z,22.15
2019-01-27T06:36:52.210Z,22.13
2019-01-27T06:39:18.850Z,22.19
2019-01-27T06:41:45.502Z,22.18
2019-01-27T06:44:12.144Z,22.18
2019-01-27T06:46:38.792Z,22.20
2019-01-27T06:49:05.430Z,22.23
2019-01-27T06:51:32.072Z,22.24
2019-01-27T06:53:58.719Z,22.29
2019-01-27T06:56:25.450Z,22.29
2019-01-27T06:58:52.095Z,22.28
2019-01-27T07:01:18.839Z,22.30
2019-01-27T07:03:45.481Z,22.29
2019-01-27T07:06:12.135Z,22.21
2019-01-27T07:08:38.790Z,22.15
2019-01-27T07:11:05.434Z,22.10
2019-01-27T07:13:32.081Z,22.17
2019-01-27T07:15:58.778Z,22.17
2019-01-27T07:18:25.388Z,22.18
2019-01-27T07:20:52.020Z,22.18
2019-01-27T07:23:18.667Z,22.25
2019-01-27T07:25:45.307Z,22.29
2019-01-27T07:28:11.951Z,22.25
2019-01-27T07:30:38.600Z,22.28
2019-01-27T07:33:05.235Z,22.33
2019-01-27T07:35:31.888Z,22.31
2019-01-27T07:37:58.527Z,22.35
2019-01-27T07:40:25.177Z,22.36
2019-01-27T07:42:51.834Z,22.42
2019-01-27T07:45:18.782Z,22.44
2019-01-27T07:47:45.247Z,22.47
2019-01-27T07:50:11.895Z,22.46
2019-01-27T07:52:38.537Z,22.44
2019-01-27T07:55:05.206Z,22.48
2019-01-27T07:57:31.982Z,22.56
2019-01-27T07:59:58.635Z,22.60
2019-01-27T08:02:25.287Z,22.65
2019-01-27T08:04:51.924Z,22.69
2019-01-27T08:07:18.573Z,22.76
2019-01-27T08:09:45.217Z,22.80
2019-01-27T08:12:11.855Z,22.90
2019-01-27T08:14:38.530Z,22.96
2019-01-27T08:17:05.173Z,23.00
2019-01-27T08:19:31.820Z,23.06
2019-01-27T08:21:58.462Z,23.09
2019-01-27T08:24:25.151Z,23.14
2019-01-27T08:26:51.789Z,23.15
2019-01-27T08:29:18.439Z,23.21
2019-01-27T08:31:45.085Z,23.25
2019-01-27T08:34:11.727Z,23.27
2019-01-27T08:36:38.385Z,23.27
2019-01-27T08:39:05.066Z,23.29
2019-01-27T08:41:31.746Z,23.32
2019-01-27T08:43:58.396Z,23.33
2019-01-27T08:46:25.054Z,23.35
2019-01-27T08:48:51.695Z,23.38
2019-01-27T08:51:18.390Z,23.40
2019-01-27T08:53:45.112Z,23.41
2019-01-27T08:56:11.770Z,23.41
2019-01-27T08:58:38.414Z,23.40
2019-01-27T09:01:05.106Z,23.43
2019-01-27T09:03:31.742Z,23.46
2019-01-27T09:05:58.385Z,23.46
2019-01-27T09:08:25.027Z,23.45
2019-01-27T09:10:51.684Z,23.46
2019-01-27T09:13:18.334Z,23.46
2019-01-27T09:15:45.016Z,23.49
2019-01-27T09:18:11.654Z,23.51
2019-01-27T09:20:38.296Z,23.53
2019-01-27T09:23:04.954Z,23.55
2019-01-27T09:25:31.601Z,23.56
2019-01-27T09:27:58.252Z,23.53
2019-01-27T09:30:24.895Z,23.55
2019-01-27T09:32:52.957Z,23.53
2019-01-27T09:35:18.181Z,23.54
2019-01-27T09:37:44.839Z,23.53
2019-01-27T09:40:11.493Z,23.53
2019-01-27T09:42:38.145Z,23.54
2019-01-27T09:45:04.783Z,23.56
2019-01-27T09:47:31.465Z,23.58
2019-01-27T09:49:58.129Z,23.54
2019-01-27T09:52:24.773Z,23.56
2019-01-27T09:54:51.411Z,23.55
2019-01-27T09:57:18.063Z,23.59
2019-01-27T09:59:44.711Z,23.59
2019-01-27T10:02:11.346Z,23.64
2019-01-27T10:04:38.033Z,23.59
2019-01-27T10:07:04.672Z,23.61
2019-01-27T10:09:31.340Z,23.61
2019-01-27T10:11:57.996Z,23.59
2019-01-27T10:14:24.642Z,23.60
2019-01-27T10:16:51.298Z,23.64
2019-01-27T10:19:17.949Z,23.59
2019-01-27T10:21:44.596Z,23.64
2019-01-27T10:24:11.253Z,23.62
2019-01-27T10:26:37.902Z,23.63
2019-01-27T10:29:04.536Z,23.62
2019-01-27T10:31:31.183Z,23.65
2019-01-27T10:33:57.823Z,23.64
2019-01-27T10:36:24.471Z,23.64
2019-01-27T10:38:51.184Z,23.64
2019-01-27T10:41:17.834Z,23.65
2019-01-27T10:43:44.479Z,23.64
2019-01-27T10:46:11.169Z,23.67
2019-01-27T10:48:37.815Z,23.65
2019-01-27T10:51:04.495Z,23.64
2019-01-27T10:53:34.979Z,23.65
2019-01-27T10:55:57.832Z,23.64
2019-01-27T10:58:24.474Z,23.63
2019-01-27T11:00:51.125Z,23.62
2019-01-27T11:03:17.770Z,23.65
2019-01-27T11:05:44.413Z,23.64
2019-01-27T11:08:11.111Z,23.65
2019-01-27T11:10:37.732Z,23.65
2019-01-27T11:13:04.370Z,23.64
2019-01-27T11:15:31.009Z,23.66
2019-01-27T11:17:57.658Z,23.67
2019-01-27T11:20:24.297Z,23.69
2019-01-27T11:22:50.942Z,23.66
2019-01-27T11:25:17.581Z,23.68
2019-01-27T11:27:44.243Z,23.67
2019-01-27T11:30:10.875Z,23.68
2019-01-27T11:32:37.556Z,23.69
2019-01-27T11:35:04.168Z,23.69
2019-01-27T11:37:30.854Z,23.69
2019-01-27T11:39:57.510Z,23.70
2019-01-27T11:42:24.225Z,23.70
2019-01-27T11:44:50.867Z,23.70
2019-01-27T11:47:17.551Z,23.72
2019-01-27T11:49:44.194Z,23.72
2019-01-27T11:52:15.461Z,23.70
2019-01-27T11:54:37.480Z,23.70
2019-01-27T11:57:04.135Z,23.71
2019-01-27T11:59:30.817Z,23.72
2019-01-27T12:01:57.458Z,23.73
2019-01-27T12:04:24.099Z,23.73
2019-01-27T12:06:50.758Z,23.74
2019-01-27T12:09:17.513Z,23.74
2019-01-27T12:11:44.268Z,23.74
2019-01-27T12:14:10.922Z,23.74
2019-01-27T12:16:37.603Z,23.75
2019-01-27T12:19:04.245Z,23.68
2019-01-27T12:21:30.966Z,23.73
2019-01-27T12:23:57.619Z,23.74
2019-01-27T12:26:24.274Z,23.74
2019-01-27T12:28:50.910Z,23.70
2019-01-27T12:31:17.554Z,23.71
2019-01-27T12:33:44.194Z,23.73
2019-01-27T12:36:10.857Z,23.59
2019-01-27T12:38:37.507Z,23.54
2019-01-27T12:41:04.170Z,23.50
2019-01-27T12:43:30.825Z,23.46
2019-01-27T12:45:57.502Z,23.52
2019-01-27T12:48:24.140Z,23.50
2019-01-27T12:50:50.821Z,23.61
2019-01-27T12:53:17.465Z,23.63
2019-01-27T12:55:44.154Z,23.65
2019-01-27T12:58:10.794Z,23.70
2019-01-27T13:00:37.450Z,23.72
2019-01-27T13:03:04.098Z,23.74
2019-01-27T13:05:30.794Z,23.74
2019-01-27T13:07:57.428Z,23.78
2019-01-27T13:10:24.076Z,23.78
2019-01-27T13:12:50.717Z,23.79
2019-01-27T13:15:18.754Z,23.78
2019-01-27T13:17:44.013Z,23.77
2019-01-27T13:20:10.648Z,23.76
2019-01-27T13:22:37.287Z,23.75
2019-01-27T13:25:03.930Z,23.72
2019-01-27T13:27:30.591Z,23.74
2019-01-27T13:29:57.282Z,23.74
2019-01-27T13:32:23.965Z,23.71
2019-01-27T13:34:50.619Z,23.70
2019-01-27T13:37:17.269Z,23.68
2019-01-27T13:39:43.960Z,23.70
2019-01-27T13:42:10.616Z,23.68
2019-01-27T13:44:37.262Z,23.68
2019-01-27T13:47:03.945Z,23.68
2019-01-27T13:49:30.593Z,23.65
2019-01-27T13:51:57.239Z,23.64
2019-01-27T13:54:23.892Z,23.68
2019-01-27T13:56:50.532Z,23.64
2019-01-27T13:59:17.184Z,23.62
2019-01-27T14:01:43.822Z,23.62
2019-01-27T14:04:10.506Z,23.63
2019-01-27T14:06:37.147Z,23.61
2019-01-27T14:09:03.847Z,23.65
2019-01-27T14:11:30.598Z,23.62
2019-01-27T14:13:57.246Z,23.60
2019-01-27T14:16:23.885Z,23.58
2019-01-27T14:18:50.553Z,23.58
2019-01-27T14:21:17.247Z,23.61
2019-01-27T14:23:43.924Z,23.60
2019-01-27T14:26:10.557Z,23.62
2019-01-27T14:28:37.192Z,23.64
2019-01-27T14:31:03.842Z,23.60
2019-01-27T14:33:30.537Z,23.58
2019-01-27T14:35:57.182Z,23.55
2019-01-27T14:38:23.843Z,23.54
2019-01-27T14:40:50.481Z,23.49
2019-01-27T14:43:17.134Z,23.55
2019-01-27T14:45:43.763Z,23.53
2019-01-27T14:48:10.419Z,23.46
2019-01-27T14:50:37.062Z,23.44
2019-01-27T14:53:03.709Z,23.46
2019-01-27T14:55:30.352Z,23.41
2019-01-27T14:57:57.933Z,23.41
2019-01-27T15:00:23.668Z,23.41
2019-01-27T15:02:50.351Z,23.36
2019-01-27T15:05:16.997Z,23.36
2019-01-27T15:07:43.683Z,23.38
2019-01-27T15:10:10.375Z,23.33
2019-01-27T15:12:37.046Z,23.34
2019-01-27T15:15:03.702Z,23.29
2019-01-27T15:17:30.342Z,23.31
2019-01-27T15:19:56.989Z,23.31
2019-01-27T15:22:23.812Z,23.27
2019-01-27T15:24:50.536Z,23.24
2019-01-27T15:27:17.181Z,23.24
2019-01-27T15:29:43.888Z,23.22
2019-01-27T15:32:10.524Z,23.20
2019-01-27T15:34:37.171Z,23.21
2019-01-27T15:37:03.804Z,23.18
2019-01-27T15:39:30.442Z,23.14
2019-01-27T15:41:57.154Z,23.16
2019-01-27T15:44:23.798Z,23.16
2019-01-27T15:46:50.444Z,23.14
2019-01-27T15:49:17.091Z,23.10
2019-01-27T15:51:43.730Z,23.11
2019-01-27T15:54:10.382Z,23.07
2019-01-27T15:56:37.068Z,23.10
2019-01-27T15:59:03.717Z,23.10
2019-01-27T16:01:30.392Z,23.10
2019-01-27T16:03:57.035Z,23.09
2019-01-27T16:06:23.718Z,23.06
2019-01-27T16:08:50.397Z,23.06
2019-01-27T16:11:17.084Z,23.05
2019-01-27T16:13:43.729Z,23.06
2019-01-27T16:16:10.374Z,23.06
2019-01-27T16:18:38.377Z,23.06
2019-01-27T16:21:03.707Z,23.04
2019-01-27T16:23:30.359Z,23.04
2019-01-27T16:25:56.999Z,23.01
2019-01-27T16:28:23.686Z,23.00
2019-01-27T16:30:50.329Z,23.00
2019-01-27T16:33:16.962Z,23.01
2019-01-27T16:35:43.613Z,23.01
2019-01-27T16:38:10.288Z,23.00
2019-01-27T16:40:39.664Z,22.98
2019-01-27T16:43:03.618Z,22.98
2019-01-27T16:45:30.263Z,23.00
2019-01-27T16:47:56.905Z,23.01
2019-01-27T16:50:23.593Z,22.95
2019-01-27T16:52:50.224Z,22.94
2019-01-27T16:55:16.917Z,22.94
2019-01-27T16:57:43.564Z,22.98
2019-01-27T17:00:10.259Z,22.98
2019-01-27T17:02:36.929Z,22.95
2019-01-27T17:05:03.607Z,22.94
2019-01-27T17:07:30.302Z,22.92
2019-01-27T17:09:56.946Z,22.96
2019-01-27T17:12:23.589Z,22.94
2019-01-27T17:14:50.268Z,22.88
2019-01-27T17:17:16.906Z,22.88
2019-01-27T17:19:44.497Z,22.89
2019-01-27T17:22:10.243Z,22.87
2019-01-27T17:24:38.210Z,22.88
2019-01-27T17:27:03.544Z,22.87
2019-01-27T17:29:30.237Z,22.82
2019-01-27T17:31:56.893Z,22.80
2019-01-27T17:34:23.536Z,22.80
2019-01-27T17:36:50.231Z,22.83
2019-01-27T17:39:16.914Z,22.82
2019-01-27T17:41:43.594Z,22.79
2019-01-27T17:44:10.215Z,22.77
2019-01-27T17:46:36.870Z,22.77
2019-01-27T17:49:03.501Z,22.76
2019-01-27T17:51:30.182Z,22.80
2019-01-27T17:53:56.842Z,22.79
2019-01-27T17:56:23.482Z,22.83
2019-01-27T17:58:54.352Z,22.76
2019-01-27T18:01:16.775Z,22.79
2019-01-27T18:03:43.419Z,22.73
2019-01-27T18:06:10.069Z,22.76
2019-01-27T18:08:36.716Z,22.75
2019-01-27T18:11:03.352Z,22.73
2019-01-27T18:13:30.011Z,22.72
2019-01-27T18:15:56.644Z,22.73
2019-01-27T18:18:23.281Z,22.72
2019-01-27T18:20:49.935Z,22.77
2019-01-27T18:23:16.584Z,22.71
2019-01-27T18:25:43.218Z,22.76
2019-01-27T18:28:09.848Z,22.75
2019-01-27T18:30:36.528Z,22.74
2019-01-27T18:33:03.287Z,22.68
2019-01-27T18:35:29.938Z,22.70
2019-01-27T18:37:56.587Z,22.69
2019-01-27T18:40:23.216Z,22.69
2019-01-27T18:42:49.904Z,22.69
2019-01-27T18:45:16.555Z,22.66
2019-01-27T18:47:43.203Z,22.67
2019-01-27T18:50:09.840Z,22.69
2019-01-27T18:52:36.560Z,22.64
2019-01-27T18:55:03.204Z,22.66
2019-01-27T18:57:29.850Z,22.72
2019-01-27T18:59:56.504Z,22.67
2019-01-27T19:02:23.145Z,22.66
2019-01-27T19:04:49.782Z,22.63
2019-01-27T19:07:16.432Z,22.65
2019-01-27T19:09:43.076Z,22.62
2019-01-27T19:12:09.712Z,22.63
2019-01-27T19:14:36.382Z,22.59
2019-01-27T19:17:03.020Z,22.62
2019-01-27T19:19:29.791Z,22.63
2019-01-27T19:21:56.325Z,22.61
2019-01-27T19:24:22.966Z,22.58
2019-01-27T19:26:49.613Z,22.61
2019-01-27T19:29:16.299Z,22.57
2019-01-27T19:31:42.935Z,22.56
2019-01-27T19:34:09.673Z,22.55
2019-01-27T19:36:36.334Z,22.55
2019-01-27T19:39:02.979Z,22.49
2019-01-27T19:41:29.622Z,22.45
2019-01-27T19:43:56.279Z,22.39
2019-01-27T19:46:22.913Z,22.42
2019-01-27T19:48:49.566Z,22.49
2019-01-27T19:51:16.254Z,22.51
2019-01-27T19:53:42.861Z,22.53
2019-01-27T19:56:09.497Z,22.53
2019-01-27T19:58:36.152Z,22.55
2019-01-27T20:01:02.802Z,22.59
2019-01-27T20:03:29.446Z,22.61
2019-01-27T20:05:56.114Z,22.62
2019-01-27T20:08:22.749Z,22.62
2019-01-27T20:10:49.412Z,22.64
2019-01-27T20:13:16.081Z,22.61
2019-01-27T20:15:42.716Z,22.67
2019-01-27T20:18:09.368Z,22.65
2019-01-27T20:20:36.007Z,22.69
2019-01-27T20:23:02.702Z,22.69
2019-01-27T20:25:29.292Z,22.64
2019-01-27T20:27:55.934Z,22.68
2019-01-27T20:30:22.569Z,22.69
2019-01-27T20:32:49.213Z,22.63
2019-01-27T20:35:15.862Z,22.56
2019-01-27T20:37:42.561Z,22.53
2019-01-27T20:40:09.213Z,22.50
2019-01-27T20:42:35.999Z,22.53
2019-01-27T20:45:02.644Z,22.57
2019-01-27T20:47:29.293Z,22.60
2019-01-27T20:49:55.936Z,22.58
2019-01-27T20:52:22.586Z,22.58
2019-01-27T20:54:49.230Z,22.61
2019-01-27T20:57:15.870Z,22.61
2019-01-27T20:59:42.522Z,22.61
2019-01-27T21:02:09.172Z,22.60
2019-01-27T21:04:35.817Z,22.55
2019-01-27T21:07:02.458Z,22.49
2019-01-27T21:09:29.099Z,22.36
2019-01-27T21:11:55.748Z,22.24
2019-01-27T21:14:22.392Z,22.24
2019-01-27T21:16:49.032Z,22.27
2019-01-27T21:19:15.681Z,22.31
2019-01-27T21:21:42.345Z,22.36
2019-01-27T21:24:08.992Z,22.38
2019-01-27T21:26:35.645Z,22.39
2019-01-27T21:29:02.289Z,22.45
2019-01-27T21:31:28.936Z,22.41
2019-01-27T21:33:56.013Z,22.47
2019-01-27T21:36:22.245Z,22.45
2019-01-27T21:38:48.885Z,22.48
2019-01-27T21:41:15.523Z,22.50
2019-01-27T21:43:42.184Z,22.46
2019-01-27T21:46:08.829Z,22.50
2019-01-27T21:48:35.467Z,22.52
2019-01-27T21:51:02.112Z,22.51
2019-01-27T21:53:28.753Z,22.42
2019-01-27T21:55:55.393Z,22.36
2019-01-27T21:58:22.034Z,22.34
2019-01-27T22:00:48.692Z,22.37
2019-01-27T22:03:15.329Z,22.39
2019-01-27T22:05:41.974Z,22.41
2019-01-27T22:08:08.612Z,22.42
2019-01-27T22:10:35.332Z,22.44
2019-01-27T22:13:02.890Z,22.43
2019-01-27T22:15:28.605Z,22.47
2019-01-27T22:17:55.296Z,22.47
2019-01-27T22:20:21.947Z,22.48
2019-01-27T22:22:48.614Z,22.47
2019-01-27T22:25:15.254Z,22.50
2019-01-27T22:27:41.906Z,22.47
2019-01-27T22:30:08.552Z,22.47
2019-01-27T22:32:35.209Z,22.48
2019-01-27T22:35:01.856Z,22.50
2019-01-27T22:37:28.491Z,22.53
2019-01-27T22:39:55.133Z,22.51
2019-01-27T22:42:21.815Z,22.54
2019-01-27T22:44:48.452Z,22.50
2019-01-27T22:47:15.105Z,22.44
2019-01-27T22:49:41.757Z,22.37
2019-01-27T22:52:08.403Z,22.35
2019-01-27T22:54:35.040Z,22.36
2019-01-27T22:57:01.791Z,22.37
2019-01-27T22:59:28.433Z,22.44
2019-01-27T23:01:55.077Z,22.41
2019-01-27T23:04:21.729Z,22.42
2019-01-27T23:06:48.410Z,22.46
2019-01-27T23:09:15.057Z,22.48
2019-01-27T23:11:41.708Z,22.45
2019-01-27T23:14:08.350Z,22.50
2019-01-27T23:16:35.147Z,22.51
2019-01-27T23:19:01.875Z,22.49
2019-01-27T23:21:28.526Z,22.51
2019-01-27T23:23:55.172Z,22.48
2019-01-27T23:26:21.810Z,22.49
2019-01-27T23:28:48.496Z,22.53
2019-01-27T23:31:15.129Z,22.51
2019-01-27T23:33:41.773Z,22.44
2019-01-27T23:36:08.429Z,22.40
2019-01-27T23:38:35.097Z,22.33
2019-01-27T23:41:01.736Z,22.37
2019-01-27T23:43:28.390Z,22.39
2019-01-27T23:45:55.030Z,22.39
2019-01-27T23:48:22.151Z,22.43
2019-01-27T23:50:48.371Z,22.42
2019-01-27T23:53:15.011Z,22.43
2019-01-27T23:55:41.665Z,22.45
2019-01-27T23:58:08.303Z,22.47
